sensor_id;sensor_type;location;lat;lon;timestamp;P1;durP1;ratioP1;P2;durP2;ratioP2
62543;SDS011;48597;49.030;1.822;2022-12-18T00:01:37;8.45;;;6.53;;
62543;SDS011;48597;49.030;1.822;2022-12-18T00:04:04;8.35;;;6.40;;
62543;SDS011;48597;49.030;1.822;2022-12-18T00:06:33;8.15;;;6.15;;
62543;SDS011;48597;49.030;1.822;2022-12-18T00:09:00;6.78;;;6.05;;
62543;SDS011;48597;49.030;1.822;2022-12-18T00:11:29;7.97;;;6.50;;
62543;SDS011;48597;49.030;1.822;2022-12-18T00:13:56;6.78;;;6.07;;
62543;SDS011;48597;49.030;1.822;2022-12-18T00:16:23;8.88;;;6.50;;
62543;SDS011;48597;49.030;1.822;2022-12-18T00:18:52;7.18;;;6.20;;
62543;SDS011;48597;49.030;1.822;2022-12-18T00:21:19;7.15;;;6.10;;
62543;SDS011;48597;49.030;1.822;2022-12-18T00:23:45;8.25;;;6.30;;
62543;SDS011;48597;49.030;1.822;2022-12-18T00:26:16;8.13;;;6.53;;
62543;SDS011;48597;49.030;1.822;2022-12-18T00:28:44;9.20;;;6.47;;
62543;SDS011;48597;49.030;1.822;2022-12-18T00:31:11;9.10;;;6.60;;
62543;SDS011;48597;49.030;1.822;2022-12-18T00:33:38;6.95;;;5.78;;
62543;SDS011;48597;49.030;1.822;2022-12-18T00:38:35;7.63;;;6.18;;
62543;SDS011;48597;49.030;1.822;2022-12-18T00:41:02;7.70;;;6.30;;
62543;SDS011;48597;49.030;1.822;2022-12-18T00:43:28;8.05;;;5.68;;
62543;SDS011;48597;49.030;1.822;2022-12-18T00:45:54;7.00;;;6.10;;
62543;SDS011;48597;49.030;1.822;2022-12-18T00:48:19;7.53;;;6.20;;
62543;SDS011;48597;49.030;1.822;2022-12-18T00:50:45;7.13;;;5.60;;
62543;SDS011;48597;49.030;1.822;2022-12-18T00:53:13;6.20;;;5.60;;
62543;SDS011;48597;49.030;1.822;2022-12-18T00:55:39;7.25;;;6.10;;
62543;SDS011;48597;49.030;1.822;2022-12-18T00:58:05;6.97;;;5.93;;
62543;SDS011;48597;49.030;1.822;2022-12-18T01:00:31;7.47;;;5.78;;
62543;SDS011;48597;49.030;1.822;2022-12-18T01:02:56;7.75;;;5.95;;
62543;SDS011;48597;49.030;1.822;2022-12-18T01:05:22;8.20;;;6.38;;
62543;SDS011;48597;49.030;1.822;2022-12-18T01:07:47;6.78;;;5.95;;
62543;SDS011;48597;49.030;1.822;2022-12-18T01:10:12;6.55;;;5.60;;
62543;SDS011;48597;49.030;1.822;2022-12-18T01:12:38;6.97;;;5.55;;
62543;SDS011;48597;49.030;1.822;2022-12-18T01:15:05;7.53;;;6.05;;
62543;SDS011;48597;49.030;1.822;2022-12-18T01:17:32;6.50;;;5.72;;
62543;SDS011;48597;49.030;1.822;2022-12-18T01:19:57;7.45;;;5.40;;
62543;SDS011;48597;49.030;1.822;2022-12-18T01:22:23;6.88;;;5.50;;
62543;SDS011;48597;49.030;1.822;2022-12-18T01:24:48;6.13;;;5.53;;
62543;SDS011;48597;49.030;1.822;2022-12-18T01:27:14;8.20;;;5.80;;
62543;SDS011;48597;49.030;1.822;2022-12-18T01:29:41;6.43;;;5.60;;
62543;SDS011;48597;49.030;1.822;2022-12-18T01:32:07;6.53;;;5.60;;
62543;SDS011;48597;49.030;1.822;2022-12-18T01:34:33;7.20;;;5.55;;
62543;SDS011;48597;49.030;1.822;2022-12-18T01:37:02;7.10;;;5.78;;
62543;SDS011;48597;49.030;1.822;2022-12-18T01:39:28;7.07;;;5.65;;
62543;SDS011;48597;49.030;1.822;2022-12-18T01:41:53;7.30;;;5.55;;
62543;SDS011;48597;49.030;1.822;2022-12-18T01:47:18;7.68;;;5.72;;
62543;SDS011;48597;49.030;1.822;2022-12-18T01:49:49;7.03;;;5.45;;
62543;SDS011;48597;49.030;1.822;2022-12-18T01:52:15;8.00;;;6.35;;
62543;SDS011;48597;49.030;1.822;2022-12-18T01:54:41;7.32;;;5.75;;
62543;SDS011;48597;49.030;1.822;2022-12-18T01:57:08;6.70;;;5.82;;
62543;SDS011;48597;49.030;1.822;2022-12-18T01:59:33;6.65;;;5.60;;
62543;SDS011;48597;49.030;1.822;2022-12-18T02:02:01;6.03;;;5.30;;
62543;SDS011;48597;49.030;1.822;2022-12-18T02:04:28;6.20;;;5.60;;
62543;SDS011;48597;49.030;1.822;2022-12-18T02:07:02;6.75;;;5.82;;
62543;SDS011;48597;49.030;1.822;2022-12-18T02:09:36;6.32;;;5.22;;
62543;SDS011;48597;49.030;1.822;2022-12-18T02:12:22;6.47;;;5.50;;
62543;SDS011;48597;49.030;1.822;2022-12-18T02:15:11;8.20;;;5.90;;
62543;SDS011;48597;49.030;1.822;2022-12-18T02:20:27;13.10;;;5.75;;
62543;SDS011;48597;49.030;1.822;2022-12-18T02:25:35;6.38;;;5.70;;
62543;SDS011;48597;49.030;1.822;2022-12-18T02:28:18;7.17;;;5.63;;
62543;SDS011;48597;49.030;1.822;2022-12-18T02:30:47;6.95;;;5.63;;
62543;SDS011;48597;49.030;1.822;2022-12-18T02:33:15;6.07;;;5.45;;
62543;SDS011;48597;49.030;1.822;2022-12-18T02:35:44;6.28;;;5.32;;
62543;SDS011;48597;49.030;1.822;2022-12-18T02:38:11;6.90;;;5.05;;
62543;SDS011;48597;49.030;1.822;2022-12-18T02:40:37;5.80;;;5.20;;
62543;SDS011;48597;49.030;1.822;2022-12-18T02:43:13;7.68;;;5.35;;
62543;SDS011;48597;49.030;1.822;2022-12-18T02:45:56;6.00;;;5.25;;
62543;SDS011;48597;49.030;1.822;2022-12-18T02:48:32;8.73;;;5.50;;
62543;SDS011;48597;49.030;1.822;2022-12-18T02:51:08;7.20;;;5.60;;
62543;SDS011;48597;49.030;1.822;2022-12-18T02:53:49;6.53;;;5.32;;
62543;SDS011;48597;49.030;1.822;2022-12-18T02:56:28;7.00;;;5.47;;
62543;SDS011;48597;49.030;1.822;2022-12-18T02:59:08;6.55;;;5.80;;
62543;SDS011;48597;49.030;1.822;2022-12-18T03:01:52;6.38;;;5.53;;
62543;SDS011;48597;49.030;1.822;2022-12-18T03:04:34;6.20;;;5.10;;
62543;SDS011;48597;49.030;1.822;2022-12-18T03:07:08;6.45;;;4.93;;
62543;SDS011;48597;49.030;1.822;2022-12-18T03:09:42;6.40;;;5.25;;
62543;SDS011;48597;49.030;1.822;2022-12-18T03:12:15;5.70;;;5.07;;
62543;SDS011;48597;49.030;1.822;2022-12-18T03:15:12;7.38;;;5.82;;
62543;SDS011;48597;49.030;1.822;2022-12-18T03:17:59;7.40;;;5.57;;
62543;SDS011;48597;49.030;1.822;2022-12-18T03:20:29;6.07;;;5.45;;
62543;SDS011;48597;49.030;1.822;2022-12-18T03:23:07;6.25;;;5.32;;
62543;SDS011;48597;49.030;1.822;2022-12-18T03:25:37;6.50;;;5.15;;
62543;SDS011;48597;49.030;1.822;2022-12-18T03:28:07;6.47;;;5.28;;
62543;SDS011;48597;49.030;1.822;2022-12-18T03:30:38;7.38;;;5.50;;
62543;SDS011;48597;49.030;1.822;2022-12-18T03:35:48;5.97;;;5.20;;
62543;SDS011;48597;49.030;1.822;2022-12-18T03:38:14;6.68;;;5.13;;
62543;SDS011;48597;49.030;1.822;2022-12-18T03:43:16;6.30;;;5.25;;
62543;SDS011;48597;49.030;1.822;2022-12-18T03:45:53;5.28;;;4.68;;
62543;SDS011;48597;49.030;1.822;2022-12-18T03:51:05;6.22;;;5.10;;
62543;SDS011;48597;49.030;1.822;2022-12-18T03:53:43;6.22;;;5.00;;
62543;SDS011;48597;49.030;1.822;2022-12-18T03:56:28;7.38;;;4.50;;
62543;SDS011;48597;49.030;1.822;2022-12-18T03:58:59;4.95;;;4.45;;
62543;SDS011;48597;49.030;1.822;2022-12-18T04:01:46;6.63;;;5.05;;
62543;SDS011;48597;49.030;1.822;2022-12-18T04:04:14;6.20;;;4.88;;
62543;SDS011;48597;49.030;1.822;2022-12-18T04:06:42;6.63;;;4.85;;
62543;SDS011;48597;49.030;1.822;2022-12-18T04:09:09;7.03;;;5.43;;
62543;SDS011;48597;49.030;1.822;2022-12-18T04:11:35;7.25;;;4.90;;
62543;SDS011;48597;49.030;1.822;2022-12-18T04:14:00;6.10;;;4.88;;
62543;SDS011;48597;49.030;1.822;2022-12-18T04:16:26;6.53;;;4.93;;
62543;SDS011;48597;49.030;1.822;2022-12-18T04:18:52;7.00;;;4.80;;
62543;SDS011;48597;49.030;1.822;2022-12-18T04:21:18;5.63;;;4.85;;
62543;SDS011;48597;49.030;1.822;2022-12-18T04:23:44;6.45;;;5.10;;
62543;SDS011;48597;49.030;1.822;2022-12-18T04:26:09;5.50;;;4.78;;
62543;SDS011;48597;49.030;1.822;2022-12-18T04:28:35;6.20;;;5.03;;
62543;SDS011;48597;49.030;1.822;2022-12-18T04:31:01;5.70;;;4.47;;
62543;SDS011;48597;49.030;1.822;2022-12-18T04:33:26;5.72;;;5.03;;
62543;SDS011;48597;49.030;1.822;2022-12-18T04:35:51;5.13;;;4.45;;
62543;SDS011;48597;49.030;1.822;2022-12-18T04:38:18;6.65;;;4.75;;
62543;SDS011;48597;49.030;1.822;2022-12-18T04:40:43;6.78;;;5.30;;
62543;SDS011;48597;49.030;1.822;2022-12-18T04:43:09;5.78;;;5.03;;
62543;SDS011;48597;49.030;1.822;2022-12-18T04:45:35;5.85;;;4.97;;
62543;SDS011;48597;49.030;1.822;2022-12-18T04:48:00;6.43;;;5.07;;
62543;SDS011;48597;49.030;1.822;2022-12-18T04:50:27;7.10;;;4.95;;
62543;SDS011;48597;49.030;1.822;2022-12-18T04:52:53;6.15;;;5.22;;
62543;SDS011;48597;49.030;1.822;2022-12-18T04:55:18;5.60;;;4.53;;
62543;SDS011;48597;49.030;1.822;2022-12-18T04:57:44;5.97;;;4.43;;
62543;SDS011;48597;49.030;1.822;2022-12-18T05:00:09;5.28;;;4.30;;
62543;SDS011;48597;49.030;1.822;2022-12-18T05:02:35;4.85;;;4.35;;
62543;SDS011;48597;49.030;1.822;2022-12-18T05:05:01;5.78;;;4.50;;
62543;SDS011;48597;49.030;1.822;2022-12-18T05:07:26;6.00;;;4.78;;
62543;SDS011;48597;49.030;1.822;2022-12-18T05:09:52;5.97;;;4.70;;
62543;SDS011;48597;49.030;1.822;2022-12-18T05:12:17;4.93;;;4.40;;
62543;SDS011;48597;49.030;1.822;2022-12-18T05:14:43;5.82;;;4.80;;
62543;SDS011;48597;49.030;1.822;2022-12-18T05:17:08;5.18;;;4.50;;
62543;SDS011;48597;49.030;1.822;2022-12-18T05:19:33;5.63;;;4.78;;
62543;SDS011;48597;49.030;1.822;2022-12-18T05:21:59;5.45;;;4.78;;
62543;SDS011;48597;49.030;1.822;2022-12-18T05:24:25;6.07;;;4.65;;
62543;SDS011;48597;49.030;1.822;2022-12-18T05:26:50;5.13;;;4.32;;
62543;SDS011;48597;49.030;1.822;2022-12-18T05:29:15;5.13;;;4.63;;
62543;SDS011;48597;49.030;1.822;2022-12-18T05:31:41;6.45;;;4.40;;
62543;SDS011;48597;49.030;1.822;2022-12-18T05:34:06;5.78;;;4.40;;
62543;SDS011;48597;49.030;1.822;2022-12-18T05:36:32;5.40;;;4.60;;
62543;SDS011;48597;49.030;1.822;2022-12-18T05:38:59;5.88;;;4.50;;
62543;SDS011;48597;49.030;1.822;2022-12-18T05:41:25;5.22;;;4.47;;
62543;SDS011;48597;49.030;1.822;2022-12-18T05:43:51;5.35;;;4.28;;
62543;SDS011;48597;49.030;1.822;2022-12-18T05:46:16;5.25;;;4.53;;
62543;SDS011;48597;49.030;1.822;2022-12-18T05:48:43;4.53;;;4.13;;
62543;SDS011;48597;49.030;1.822;2022-12-18T05:51:14;5.05;;;4.18;;
62543;SDS011;48597;49.030;1.822;2022-12-18T05:53:41;5.03;;;4.15;;
62543;SDS011;48597;49.030;1.822;2022-12-18T05:56:08;5.60;;;4.65;;
62543;SDS011;48597;49.030;1.822;2022-12-18T05:58:36;5.15;;;4.00;;
62543;SDS011;48597;49.030;1.822;2022-12-18T06:01:12;6.07;;;4.75;;
62543;SDS011;48597;49.030;1.822;2022-12-18T06:03:40;5.32;;;4.18;;
62543;SDS011;48597;49.030;1.822;2022-12-18T06:06:12;4.82;;;4.32;;
62543;SDS011;48597;49.030;1.822;2022-12-18T06:08:58;5.57;;;4.20;;
62543;SDS011;48597;49.030;1.822;2022-12-18T06:11:25;5.25;;;4.50;;
62543;SDS011;48597;49.030;1.822;2022-12-18T06:13:52;5.05;;;4.35;;
62543;SDS011;48597;49.030;1.822;2022-12-18T06:16:18;5.53;;;4.50;;
62543;SDS011;48597;49.030;1.822;2022-12-18T06:18:43;5.85;;;4.18;;
62543;SDS011;48597;49.030;1.822;2022-12-18T06:21:10;5.70;;;4.10;;
62543;SDS011;48597;49.030;1.822;2022-12-18T06:23:36;6.22;;;4.70;;
62543;SDS011;48597;49.030;1.822;2022-12-18T06:26:07;7.35;;;4.72;;
62543;SDS011;48597;49.030;1.822;2022-12-18T06:28:33;5.23;;;4.37;;
62543;SDS011;48597;49.030;1.822;2022-12-18T06:31:00;6.68;;;4.47;;
62543;SDS011;48597;49.030;1.822;2022-12-18T06:33:28;5.00;;;4.35;;
62543;SDS011;48597;49.030;1.822;2022-12-18T06:35:54;5.03;;;4.18;;
62543;SDS011;48597;49.030;1.822;2022-12-18T06:38:29;5.53;;;4.68;;
62543;SDS011;48597;49.030;1.822;2022-12-18T06:40:56;6.45;;;4.47;;
62543;SDS011;48597;49.030;1.822;2022-12-18T06:43:22;5.50;;;4.30;;
62543;SDS011;48597;49.030;1.822;2022-12-18T06:45:47;5.13;;;4.47;;
62543;SDS011;48597;49.030;1.822;2022-12-18T06:48:17;6.75;;;5.00;;
62543;SDS011;48597;49.030;1.822;2022-12-18T06:50:45;5.30;;;4.20;;
62543;SDS011;48597;49.030;1.822;2022-12-18T06:53:11;4.38;;;3.88;;
62543;SDS011;48597;49.030;1.822;2022-12-18T06:55:36;5.32;;;4.05;;
62543;SDS011;48597;49.030;1.822;2022-12-18T06:58:02;6.43;;;4.65;;
62543;SDS011;48597;49.030;1.822;2022-12-18T07:00:27;5.18;;;4.18;;
62543;SDS011;48597;49.030;1.822;2022-12-18T07:02:53;5.78;;;4.18;;
62543;SDS011;48597;49.030;1.822;2022-12-18T07:05:18;7.07;;;4.57;;
62543;SDS011;48597;49.030;1.822;2022-12-18T07:07:45;5.90;;;4.60;;
62543;SDS011;48597;49.030;1.822;2022-12-18T07:10:10;6.20;;;4.55;;
62543;SDS011;48597;49.030;1.822;2022-12-18T07:12:36;5.53;;;4.32;;
62543;SDS011;48597;49.030;1.822;2022-12-18T07:15:01;6.50;;;4.75;;
62543;SDS011;48597;49.030;1.822;2022-12-18T07:17:27;6.15;;;4.28;;
62543;SDS011;48597;49.030;1.822;2022-12-18T07:19:53;6.10;;;4.22;;
62543;SDS011;48597;49.030;1.822;2022-12-18T07:22:20;5.75;;;4.43;;
62543;SDS011;48597;49.030;1.822;2022-12-18T07:24:45;5.43;;;4.57;;
62543;SDS011;48597;49.030;1.822;2022-12-18T07:27:12;5.95;;;4.70;;
62543;SDS011;48597;49.030;1.822;2022-12-18T07:29:37;5.32;;;4.18;;
62543;SDS011;48597;49.030;1.822;2022-12-18T07:32:02;4.68;;;4.00;;
62543;SDS011;48597;49.030;1.822;2022-12-18T07:34:29;5.90;;;4.32;;
62543;SDS011;48597;49.030;1.822;2022-12-18T07:36:55;5.13;;;3.95;;
62543;SDS011;48597;49.030;1.822;2022-12-18T07:39:23;6.38;;;4.20;;
62543;SDS011;48597;49.030;1.822;2022-12-18T07:41:49;5.25;;;3.72;;
62543;SDS011;48597;49.030;1.822;2022-12-18T07:44:36;4.40;;;3.80;;
62543;SDS011;48597;49.030;1.822;2022-12-18T07:47:02;4.80;;;4.07;;
62543;SDS011;48597;49.030;1.822;2022-12-18T07:49:27;4.65;;;4.10;;
62543;SDS011;48597;49.030;1.822;2022-12-18T07:51:54;5.05;;;4.10;;
62543;SDS011;48597;49.030;1.822;2022-12-18T07:54:21;4.88;;;3.92;;
62543;SDS011;48597;49.030;1.822;2022-12-18T07:56:50;4.90;;;3.45;;
62543;SDS011;48597;49.030;1.822;2022-12-18T07:59:16;4.53;;;3.65;;
62543;SDS011;48597;49.030;1.822;2022-12-18T08:01:43;4.93;;;3.88;;
62543;SDS011;48597;49.030;1.822;2022-12-18T08:04:08;6.68;;;4.28;;
62543;SDS011;48597;49.030;1.822;2022-12-18T08:06:34;4.72;;;3.78;;
62543;SDS011;48597;49.030;1.822;2022-12-18T08:08:59;4.07;;;3.42;;
62543;SDS011;48597;49.030;1.822;2022-12-18T08:11:26;4.40;;;3.67;;
62543;SDS011;48597;49.030;1.822;2022-12-18T08:13:52;4.85;;;3.70;;
62543;SDS011;48597;49.030;1.822;2022-12-18T08:16:18;4.03;;;3.60;;
62543;SDS011;48597;49.030;1.822;2022-12-18T08:18:44;4.93;;;3.67;;
62543;SDS011;48597;49.030;1.822;2022-12-18T08:23:40;4.07;;;3.20;;
62543;SDS011;48597;49.030;1.822;2022-12-18T08:26:06;4.35;;;3.92;;
62543;SDS011;48597;49.030;1.822;2022-12-18T08:28:31;4.97;;;3.85;;
62543;SDS011;48597;49.030;1.822;2022-12-18T08:30:57;3.80;;;3.40;;
62543;SDS011;48597;49.030;1.822;2022-12-18T08:33:22;4.10;;;3.35;;
62543;SDS011;48597;49.030;1.822;2022-12-18T08:35:48;6.40;;;3.50;;
62543;SDS011;48597;49.030;1.822;2022-12-18T08:38:13;4.40;;;3.53;;
62543;SDS011;48597;49.030;1.822;2022-12-18T08:40:39;4.82;;;3.28;;
62543;SDS011;48597;49.030;1.822;2022-12-18T08:43:04;4.57;;;3.47;;
62543;SDS011;48597;49.030;1.822;2022-12-18T08:45:48;4.75;;;3.38;;
62543;SDS011;48597;49.030;1.822;2022-12-18T08:48:14;4.32;;;3.53;;
62543;SDS011;48597;49.030;1.822;2022-12-18T08:50:41;4.65;;;3.30;;
62543;SDS011;48597;49.030;1.822;2022-12-18T08:53:06;4.22;;;3.17;;
62543;SDS011;48597;49.030;1.822;2022-12-18T08:55:33;4.15;;;3.30;;
62543;SDS011;48597;49.030;1.822;2022-12-18T08:57:58;4.20;;;3.40;;
62543;SDS011;48597;49.030;1.822;2022-12-18T09:00:25;4.20;;;3.60;;
62543;SDS011;48597;49.030;1.822;2022-12-18T09:02:50;4.32;;;3.47;;
62543;SDS011;48597;49.030;1.822;2022-12-18T09:05:17;4.03;;;3.55;;
62543;SDS011;48597;49.030;1.822;2022-12-18T09:07:42;5.45;;;3.70;;
62543;SDS011;48597;49.030;1.822;2022-12-18T09:10:07;4.03;;;3.45;;
62543;SDS011;48597;49.030;1.822;2022-12-18T09:12:33;6.78;;;3.60;;
62543;SDS011;48597;49.030;1.822;2022-12-18T09:14:58;4.85;;;3.05;;
62543;SDS011;48597;49.030;1.822;2022-12-18T09:17:23;3.78;;;3.25;;
62543;SDS011;48597;49.030;1.822;2022-12-18T09:19:49;6.05;;;3.45;;
62543;SDS011;48597;49.030;1.822;2022-12-18T09:22:14;4.57;;;3.60;;
62543;SDS011;48597;49.030;1.822;2022-12-18T09:24:40;4.57;;;3.50;;
62543;SDS011;48597;49.030;1.822;2022-12-18T09:27:05;5.55;;;3.70;;
62543;SDS011;48597;49.030;1.822;2022-12-18T09:29:31;5.35;;;3.53;;
62543;SDS011;48597;49.030;1.822;2022-12-18T09:31:57;5.13;;;3.50;;
62543;SDS011;48597;49.030;1.822;2022-12-18T09:34:22;3.90;;;3.50;;
62543;SDS011;48597;49.030;1.822;2022-12-18T09:36:48;4.32;;;3.65;;
62543;SDS011;48597;49.030;1.822;2022-12-18T09:39:14;5.25;;;3.42;;
62543;SDS011;48597;49.030;1.822;2022-12-18T09:49:31;5.10;;;3.90;;
62543;SDS011;48597;49.030;1.822;2022-12-18T09:52:09;4.28;;;3.50;;
62543;SDS011;48597;49.030;1.822;2022-12-18T09:54:40;4.57;;;3.67;;
62543;SDS011;48597;49.030;1.822;2022-12-18T09:57:10;5.07;;;3.75;;
62543;SDS011;48597;49.030;1.822;2022-12-18T09:59:40;4.97;;;3.75;;
62543;SDS011;48597;49.030;1.822;2022-12-18T10:02:12;5.70;;;3.72;;
62543;SDS011;48597;49.030;1.822;2022-12-18T10:04:40;4.60;;;3.78;;
62543;SDS011;48597;49.030;1.822;2022-12-18T10:07:14;4.25;;;3.83;;
62543;SDS011;48597;49.030;1.822;2022-12-18T10:09:50;4.45;;;3.50;;
62543;SDS011;48597;49.030;1.822;2022-12-18T10:12:25;5.53;;;3.50;;
62543;SDS011;48597;49.030;1.822;2022-12-18T10:15:02;6.93;;;3.92;;
62543;SDS011;48597;49.030;1.822;2022-12-18T10:18:14;5.45;;;3.85;;
62543;SDS011;48597;49.030;1.822;2022-12-18T10:20:45;4.05;;;3.55;;
62543;SDS011;48597;49.030;1.822;2022-12-18T10:26:08;4.70;;;4.00;;
62543;SDS011;48597;49.030;1.822;2022-12-18T10:28:36;5.55;;;3.75;;
62543;SDS011;48597;49.030;1.822;2022-12-18T10:31:07;5.95;;;4.10;;
62543;SDS011;48597;49.030;1.822;2022-12-18T10:33:41;6.18;;;3.78;;
62543;SDS011;48597;49.030;1.822;2022-12-18T10:36:07;4.80;;;3.80;;
62543;SDS011;48597;49.030;1.822;2022-12-18T10:38:33;4.85;;;4.00;;
62543;SDS011;48597;49.030;1.822;2022-12-18T10:40:59;6.18;;;3.72;;
62543;SDS011;48597;49.030;1.822;2022-12-18T10:43:27;4.22;;;3.65;;
62543;SDS011;48597;49.030;1.822;2022-12-18T10:48:26;4.60;;;3.60;;
62543;SDS011;48597;49.030;1.822;2022-12-18T10:50:52;5.28;;;3.92;;
62543;SDS011;48597;49.030;1.822;2022-12-18T10:53:23;5.53;;;4.20;;
62543;SDS011;48597;49.030;1.822;2022-12-18T10:55:50;5.03;;;3.92;;
62543;SDS011;48597;49.030;1.822;2022-12-18T11:01:01;5.10;;;3.70;;
62543;SDS011;48597;49.030;1.822;2022-12-18T11:03:40;5.82;;;4.05;;
62543;SDS011;48597;49.030;1.822;2022-12-18T11:08:39;5.28;;;3.65;;
62543;SDS011;48597;49.030;1.822;2022-12-18T11:11:07;4.45;;;3.60;;
62543;SDS011;48597;49.030;1.822;2022-12-18T11:13:49;6.25;;;3.90;;
62543;SDS011;48597;49.030;1.822;2022-12-18T11:16:21;6.22;;;3.78;;
62543;SDS011;48597;49.030;1.822;2022-12-18T11:18:46;6.20;;;3.72;;
62543;SDS011;48597;49.030;1.822;2022-12-18T11:21:12;5.47;;;3.88;;
62543;SDS011;48597;49.030;1.822;2022-12-18T11:23:45;5.03;;;3.83;;
62543;SDS011;48597;49.030;1.822;2022-12-18T11:26:14;5.90;;;3.83;;
62543;SDS011;48597;49.030;1.822;2022-12-18T11:28:47;4.65;;;3.95;;
62543;SDS011;48597;49.030;1.822;2022-12-18T11:36:18;6.50;;;3.90;;
62543;SDS011;48597;49.030;1.822;2022-12-18T11:38:45;6.65;;;4.03;;
62543;SDS011;48597;49.030;1.822;2022-12-18T11:44:46;6.95;;;4.32;;
62543;SDS011;48597;49.030;1.822;2022-12-18T11:49:52;4.95;;;3.78;;
62543;SDS011;48597;49.030;1.822;2022-12-18T11:52:39;5.47;;;3.75;;
62543;SDS011;48597;49.030;1.822;2022-12-18T11:55:12;5.40;;;3.65;;
62543;SDS011;48597;49.030;1.822;2022-12-18T12:00:24;7.57;;;4.32;;
62543;SDS011;48597;49.030;1.822;2022-12-18T12:06:22;4.72;;;3.13;;
62543;SDS011;48597;49.030;1.822;2022-12-18T12:09:01;5.22;;;3.58;;
62543;SDS011;48597;49.030;1.822;2022-12-18T12:14:44;4.40;;;3.70;;
62543;SDS011;48597;49.030;1.822;2022-12-18T12:17:22;5.60;;;3.92;;
62543;SDS011;48597;49.030;1.822;2022-12-18T12:34:22;4.47;;;3.58;;
62543;SDS011;48597;49.030;1.822;2022-12-18T12:39:24;5.28;;;4.40;;
62543;SDS011;48597;49.030;1.822;2022-12-18T12:41:54;5.78;;;4.13;;
62543;SDS011;48597;49.030;1.822;2022-12-18T12:44:41;4.90;;;3.45;;
62543;SDS011;48597;49.030;1.822;2022-12-18T12:47:21;5.22;;;3.88;;
62543;SDS011;48597;49.030;1.822;2022-12-18T12:49:51;6.38;;;4.03;;
62543;SDS011;48597;49.030;1.822;2022-12-18T12:52:22;5.60;;;3.90;;
62543;SDS011;48597;49.030;1.822;2022-12-18T12:54:54;4.35;;;3.90;;
62543;SDS011;48597;49.030;1.822;2022-12-18T12:57:23;5.75;;;3.88;;
62543;SDS011;48597;49.030;1.822;2022-12-18T13:00:11;6.18;;;4.22;;
62543;SDS011;48597;49.030;1.822;2022-12-18T13:05:54;4.38;;;3.58;;
62543;SDS011;48597;49.030;1.822;2022-12-18T13:08:26;5.60;;;4.30;;
62543;SDS011;48597;49.030;1.822;2022-12-18T13:10:53;5.03;;;3.92;;
62543;SDS011;48597;49.030;1.822;2022-12-18T13:13:54;5.55;;;4.15;;
62543;SDS011;48597;49.030;1.822;2022-12-18T13:16:22;4.97;;;4.45;;
62543;SDS011;48597;49.030;1.822;2022-12-18T13:18:50;5.72;;;4.32;;
62543;SDS011;48597;49.030;1.822;2022-12-18T13:21:50;5.45;;;4.35;;
62543;SDS011;48597;49.030;1.822;2022-12-18T13:24:27;5.82;;;4.40;;
62543;SDS011;48597;49.030;1.822;2022-12-18T13:26:57;5.97;;;4.38;;
62543;SDS011;48597;49.030;1.822;2022-12-18T13:29:40;7.47;;;4.63;;
62543;SDS011;48597;49.030;1.822;2022-12-18T13:32:19;5.85;;;4.20;;
62543;SDS011;48597;49.030;1.822;2022-12-18T13:45:48;6.78;;;4.78;;
62543;SDS011;48597;49.030;1.822;2022-12-18T13:48:24;10.57;;;5.43;;
62543;SDS011;48597;49.030;1.822;2022-12-18T13:51:04;8.40;;;5.68;;
62543;SDS011;48597;49.030;1.822;2022-12-18T13:53:34;8.80;;;5.47;;
62543;SDS011;48597;49.030;1.822;2022-12-18T13:56:03;8.48;;;5.93;;
62543;SDS011;48597;49.030;1.822;2022-12-18T13:58:30;8.23;;;6.00;;
62543;SDS011;48597;49.030;1.822;2022-12-18T14:00:55;10.48;;;6.07;;
62543;SDS011;48597;49.030;1.822;2022-12-18T14:03:24;11.93;;;6.22;;
62543;SDS011;48597;49.030;1.822;2022-12-18T14:05:59;9.77;;;5.68;;
62543;SDS011;48597;49.030;1.822;2022-12-18T14:08:29;10.00;;;6.00;;
62543;SDS011;48597;49.030;1.822;2022-12-18T14:10:58;10.13;;;6.03;;
62543;SDS011;48597;49.030;1.822;2022-12-18T14:13:27;8.30;;;5.43;;
62543;SDS011;48597;49.030;1.822;2022-12-18T14:15:55;8.40;;;5.28;;
62543;SDS011;48597;49.030;1.822;2022-12-18T14:20:56;8.25;;;6.03;;
62543;SDS011;48597;49.030;1.822;2022-12-18T14:23:28;9.20;;;5.70;;
62543;SDS011;48597;49.030;1.822;2022-12-18T14:25:57;7.00;;;5.38;;
62543;SDS011;48597;49.030;1.822;2022-12-18T14:28:23;8.35;;;5.60;;
62543;SDS011;48597;49.030;1.822;2022-12-18T14:30:48;9.48;;;5.93;;
62543;SDS011;48597;49.030;1.822;2022-12-18T14:33:15;9.02;;;5.75;;
62543;SDS011;48597;49.030;1.822;2022-12-18T14:35:56;7.65;;;5.60;;
62543;SDS011;48597;49.030;1.822;2022-12-18T14:41:05;6.25;;;5.10;;
62543;SDS011;48597;49.030;1.822;2022-12-18T14:43:39;6.68;;;5.43;;
62543;SDS011;48597;49.030;1.822;2022-12-18T14:49:30;7.15;;;5.57;;
62543;SDS011;48597;49.030;1.822;2022-12-18T14:52:01;7.95;;;5.50;;
62543;SDS011;48597;49.030;1.822;2022-12-18T14:54:29;9.80;;;5.78;;
62543;SDS011;48597;49.030;1.822;2022-12-18T14:57:03;7.85;;;5.40;;
62543;SDS011;48597;49.030;1.822;2022-12-18T14:59:40;7.43;;;5.55;;
62543;SDS011;48597;49.030;1.822;2022-12-18T15:04:48;9.48;;;5.93;;
62543;SDS011;48597;49.030;1.822;2022-12-18T15:07:46;8.50;;;5.50;;
62543;SDS011;48597;49.030;1.822;2022-12-18T15:10:21;9.38;;;5.85;;
62543;SDS011;48597;49.030;1.822;2022-12-18T15:17:58;7.97;;;5.70;;
62543;SDS011;48597;49.030;1.822;2022-12-18T15:20:32;6.82;;;5.70;;
62543;SDS011;48597;49.030;1.822;2022-12-18T15:23:04;7.97;;;5.88;;
62543;SDS011;48597;49.030;1.822;2022-12-18T15:28:02;6.93;;;5.80;;
62543;SDS011;48597;49.030;1.822;2022-12-18T15:30:29;8.52;;;6.25;;
62543;SDS011;48597;49.030;1.822;2022-12-18T15:35:58;7.70;;;5.38;;
62543;SDS011;48597;49.030;1.822;2022-12-18T15:38:25;6.40;;;5.40;;
62543;SDS011;48597;49.030;1.822;2022-12-18T15:40:52;8.95;;;5.95;;
62543;SDS011;48597;49.030;1.822;2022-12-18T15:43:19;6.47;;;5.63;;
62543;SDS011;48597;49.030;1.822;2022-12-18T15:46:00;6.25;;;5.57;;
62543;SDS011;48597;49.030;1.822;2022-12-18T15:48:27;8.77;;;5.90;;
62543;SDS011;48597;49.030;1.822;2022-12-18T15:50:52;7.80;;;5.32;;
62543;SDS011;48597;49.030;1.822;2022-12-18T15:53:21;7.30;;;5.72;;
62543;SDS011;48597;49.030;1.822;2022-12-18T15:55:47;6.80;;;5.63;;
62543;SDS011;48597;49.030;1.822;2022-12-18T15:58:31;6.18;;;5.35;;
62543;SDS011;48597;49.030;1.822;2022-12-18T16:00:58;6.10;;;5.30;;
62543;SDS011;48597;49.030;1.822;2022-12-18T16:03:25;7.80;;;5.45;;
62543;SDS011;48597;49.030;1.822;2022-12-18T16:05:50;8.43;;;6.07;;
62543;SDS011;48597;49.030;1.822;2022-12-18T16:08:17;8.02;;;5.30;;
62543;SDS011;48597;49.030;1.822;2022-12-18T16:10:42;8.13;;;5.93;;
62543;SDS011;48597;49.030;1.822;2022-12-18T16:13:11;6.40;;;5.43;;
62543;SDS011;48597;49.030;1.822;2022-12-18T16:15:40;8.90;;;5.72;;
62543;SDS011;48597;49.030;1.822;2022-12-18T16:18:05;7.85;;;5.55;;
62543;SDS011;48597;49.030;1.822;2022-12-18T16:20:31;7.07;;;5.68;;
62543;SDS011;48597;49.030;1.822;2022-12-18T16:22:57;8.00;;;5.63;;
62543;SDS011;48597;49.030;1.822;2022-12-18T16:25:26;7.40;;;5.82;;
62543;SDS011;48597;49.030;1.822;2022-12-18T16:27:52;8.02;;;5.72;;
62543;SDS011;48597;49.030;1.822;2022-12-18T16:30:22;6.72;;;5.65;;
62543;SDS011;48597;49.030;1.822;2022-12-18T16:32:57;6.65;;;5.32;;
62543;SDS011;48597;49.030;1.822;2022-12-18T16:35:23;7.90;;;5.72;;
62543;SDS011;48597;49.030;1.822;2022-12-18T16:37:49;8.23;;;5.43;;
62543;SDS011;48597;49.030;1.822;2022-12-18T16:40:15;7.75;;;5.43;;
62543;SDS011;48597;49.030;1.822;2022-12-18T16:42:42;6.05;;;5.38;;
62543;SDS011;48597;49.030;1.822;2022-12-18T16:45:09;7.95;;;5.45;;
62543;SDS011;48597;49.030;1.822;2022-12-18T16:47:39;7.47;;;5.82;;
62543;SDS011;48597;49.030;1.822;2022-12-18T16:50:05;7.78;;;5.55;;
62543;SDS011;48597;49.030;1.822;2022-12-18T16:52:32;6.88;;;6.05;;
62543;SDS011;48597;49.030;1.822;2022-12-18T16:54:57;6.95;;;5.95;;